»·PEaware :: N448RA KBFL-KSBD

N448RA :: KBFL-KSBD

FLIGHT INFORMATION

Flight Status: Arrived
Operator: Privately registered:
United States
More flights under this callsign
Pilot: Scott M. (16181)
Aircraft: Unknown
(DA62)
More flights by this aircraft type
Origin: KBFL Meadows
United States
Destination: KSBD San Bernardino Intl
United States
More flights between these airports :: More routes between these airports
Route:
File this flight plan on PilotEdge
Remarks:
Altitude:
(Current/Filed)
9,500ft
Speed:
(Current/Filed)
160kts
Departed: 06-Sep-18 04:46 PM
Arrived: 06-Sep-18 05:44 PM
Distance/Time
Traveled:
120nm/0:57
Distance/Time
To Go:
Arrived

Flight Plot

Page will automatically refresh every two minutes.


Map Options




Map Legend


Flown Route
Filed Route
Departure Airport
Arrival Airport
Navaid (VOR, NDB)
Fix

Horizontal Profiles

Position Reports

Time Latitude Longitude Heading Altitude Ground
Speed
06-Sep-18 16:34 35.429371 -119.046100 226 494ft 0kts
06-Sep-18 16:35 35.429371 -119.046100 226 494ft 0kts
06-Sep-18 16:36 35.429371 -119.046100 226 494ft 0kts
06-Sep-18 16:37 35.429371 -119.046100 226 494ft 0kts
06-Sep-18 16:38 35.429371 -119.046100 226 494ft 0kts
06-Sep-18 16:39 35.429371 -119.046100 226 494ft 0kts
06-Sep-18 16:41 35.429371 -119.046100 226 494ft 0kts
06-Sep-18 16:42 35.429371 -119.046100 226 494ft 0kts
06-Sep-18 16:43 35.429371 -119.046100 226 494ft 0kts
06-Sep-18 16:44 35.429281 -119.046224 227 494ft 6kts
06-Sep-18 16:45 35.426298 -119.044804 128 482ft 15kts
06-Sep-18 16:46 35.425766 -119.044706 221 480ft 0kts
06-Sep-18 16:47 35.425545 -119.045053 242 478ft 11kts
06-Sep-18 16:48 35.434866 -119.057520 315 726ft 86kts
06-Sep-18 16:49 35.434775 -119.083346 201 1619ft 119kts
06-Sep-18 16:50 35.408099 -119.058298 138 2712ft 130kts
06-Sep-18 16:51 35.381410 -119.027312 144 3658ft 133kts
06-Sep-18 16:52 35.350069 -119.004599 154 4551ft 130kts
06-Sep-18 16:53 35.318364 -118.984406 155 5445ft 128kts
06-Sep-18 16:54 35.287052 -118.964610 155 6338ft 127kts
06-Sep-18 16:55 35.255967 -118.944979 154 7233ft 126kts
06-Sep-18 16:56 35.225252 -118.925597 154 8124ft 125kts
06-Sep-18 16:57 35.194823 -118.906413 154 9011ft 124kts
06-Sep-18 16:58 35.162905 -118.886311 153 9553ft 146kts
06-Sep-18 16:59 35.123474 -118.861470 153 9584ft 168kts
06-Sep-18 17:00 35.081870 -118.835310 153 9635ft 168kts
06-Sep-18 17:01 35.040721 -118.809471 153 9699ft 167kts
06-Sep-18 17:02 34.999621 -118.783684 153 9718ft 167kts
06-Sep-18 17:03 34.957696 -118.757409 149 9709ft 172kts
06-Sep-18 17:04 34.914534 -118.730329 149 9636ft 176kts
06-Sep-18 17:05 34.873472 -118.704653 149 9635ft 177kts
06-Sep-18 17:06 34.829674 -118.677431 149 9615ft 178kts
06-Sep-18 17:07 34.785815 -118.650050 149 9584ft 178kts
06-Sep-18 17:08 34.741769 -118.622610 149 9543ft 179kts
06-Sep-18 17:09 34.697934 -118.595314 150 9503ft 178kts
06-Sep-18 17:10 34.654066 -118.568126 150 9485ft 177kts
06-Sep-18 17:11 34.610484 -118.541000 149 9480ft 176kts
06-Sep-18 17:12 34.567336 -118.514218 150 9480ft 176kts
06-Sep-18 17:13 34.524132 -118.487470 149 9520ft 173kts
06-Sep-18 17:14 34.481354 -118.461010 150 9111ft 173kts
06-Sep-18 17:15 34.438920 -118.434793 150 8608ft 172kts
06-Sep-18 17:16 34.404405 -118.399242 113 8105ft 167kts
06-Sep-18 17:17 34.385614 -118.348980 112 7612ft 168kts
06-Sep-18 17:18 34.367223 -118.298692 112 7530ft 167kts
06-Sep-18 17:19 34.348540 -118.247574 111 7530ft 169kts
06-Sep-18 17:20 34.329430 -118.195211 111 7528ft 173kts
06-Sep-18 17:21 34.310269 -118.142621 115 7524ft 167kts
06-Sep-18 17:22 34.291760 -118.092283 115 7522ft 163kts
06-Sep-18 17:23 34.273472 -118.042474 115 7520ft 162kts
06-Sep-18 17:24 34.255331 -117.993114 115 7399ft 163kts
06-Sep-18 17:25 34.237861 -117.945676 115 7533ft 158kts
06-Sep-18 17:26 34.219596 -117.896106 116 7035ft 159kts
06-Sep-18 17:27 34.202246 -117.848245 109 6522ft 157kts
06-Sep-18 17:28 34.193130 -117.796889 106 5944ft 158kts
06-Sep-18 17:29 34.184028 -117.744175 105 5345ft 162kts
06-Sep-18 17:30 34.175580 -117.695052 105 5109ft 149kts
06-Sep-18 17:31 34.167218 -117.646575 105 4530ft 154kts
06-Sep-18 17:32 34.158904 -117.598428 105 3952ft 151kts
06-Sep-18 17:33 34.151048 -117.553121 105 3385ft 145kts
06-Sep-18 17:34 34.143354 -117.508796 104 2811ft 140kts
06-Sep-18 17:35 34.136550 -117.469629 104 2340ft 116kts
06-Sep-18 17:36 34.130336 -117.433990 104 1986ft 94kts
06-Sep-18 17:37 34.124363 -117.399915 104 2002ft 110kts
06-Sep-18 17:38 34.118083 -117.363961 104 1998ft 107kts
06-Sep-18 17:39 34.112175 -117.330222 104 1997ft 105kts
06-Sep-18 17:40 34.104642 -117.296530 113 1979ft 104kts
06-Sep-18 17:41 34.096697 -117.263360 86 1958ft 102kts
06-Sep-18 17:42 34.106717 -117.231419 62 2015ft 98kts
06-Sep-18 17:43 34.118905 -117.202504 63 2064ft 91kts
06-Sep-18 17:44 34.108923 -117.183627 214 1870ft 74kts
06-Sep-18 17:45 34.102960 -117.208654 249 1386ft 78kts
06-Sep-18 17:46 34.097489 -117.228085 250 1135ft 22kts
06-Sep-18 17:47 34.095893 -117.236075 313 1114ft 0kts
06-Sep-18 17:48 34.097329 -117.237095 329 1112ft 18kts
06-Sep-18 17:49 34.102155 -117.240416 331 1108ft 18kts
06-Sep-18 17:50 34.104457 -117.245084 307 1099ft 6kts

Navigation Log

Ident Type
Flight plan parsing failed, navigation log unavailable